createdAt,value
2022-10-10T00:01:48.055Z,6.04
2022-10-10T00:04:17.027Z,5.89
2022-10-10T00:06:46.030Z,5.90
2022-10-10T00:09:14.963Z,5.79
2022-10-10T00:11:43.873Z,5.83
2022-10-10T00:14:14.176Z,5.74
2022-10-10T00:16:43.215Z,5.72
2022-10-10T00:19:12.306Z,5.57
2022-10-10T00:21:42.439Z,5.55
2022-10-10T00:24:11.435Z,5.47
2022-10-10T00:26:40.340Z,5.38
2022-10-10T00:29:09.337Z,5.37
2022-10-10T00:31:39.676Z,5.42
2022-10-10T00:34:08.633Z,5.40
2022-10-10T00:36:37.617Z,5.43
2022-10-10T00:39:06.576Z,5.34
2022-10-10T00:41:35.504Z,5.29
2022-10-10T00:44:07.349Z,5.37
2022-10-10T00:46:36.573Z,5.37
2022-10-10T00:49:11.404Z,5.36
2022-10-10T00:51:40.996Z,5.42
2022-10-10T00:54:13.536Z,5.41
2022-10-10T00:56:48.769Z,5.56
2022-10-10T00:59:19.588Z,5.52
2022-10-10T01:01:48.948Z,5.53
2022-10-10T01:04:34.814Z,5.57
2022-10-10T01:07:06.968Z,5.57
2022-10-10T01:09:38.748Z,5.83
2022-10-10T01:12:19.715Z,5.87
2022-10-10T01:14:54.769Z,5.87
2022-10-10T01:17:33.531Z,5.81
2022-10-10T01:20:42.123Z,5.93
2022-10-10T01:23:44.514Z,5.81
2022-10-10T01:26:39.128Z,5.85
2022-10-10T01:29:18.294Z,6.10
2022-10-10T01:31:52.265Z,6.13
2022-10-10T01:34:28.127Z,6.18
2022-10-10T01:37:02.918Z,6.13
2022-10-10T01:39:39.973Z,6.08
2022-10-10T01:42:15.678Z,6.14
2022-10-10T01:44:47.633Z,6.07
2022-10-10T01:47:16.678Z,6.09
2022-10-10T01:49:48.166Z,6.12
2022-10-10T01:52:29.437Z,6.16
2022-10-10T01:55:14.930Z,6.24
2022-10-10T01:57:58.561Z,6.28
2022-10-10T02:00:29.122Z,6.36
2022-10-10T02:03:05.639Z,6.36
2022-10-10T02:05:43.212Z,6.45
2022-10-10T02:08:16.050Z,6.41
2022-10-10T02:10:49.166Z,6.43
2022-10-10T02:13:19.256Z,6.31
2022-10-10T02:15:53.663Z,6.42
2022-10-10T02:18:26.925Z,6.41
2022-10-10T02:20:56.723Z,6.37
2022-10-10T02:23:26.526Z,6.32
2022-10-10T02:25:57.705Z,6.41
2022-10-10T02:28:32.755Z,6.30
2022-10-10T02:31:08.107Z,6.33
2022-10-10T02:33:52.781Z,6.29
2022-10-10T02:36:22.585Z,6.32
2022-10-10T02:38:53.892Z,6.24
2022-10-10T02:41:24.150Z,6.15
2022-10-10T02:43:53.758Z,6.16
2022-10-10T02:46:24.862Z,6.31
2022-10-10T02:48:54.470Z,6.28
2022-10-10T02:51:26.544Z,6.27
2022-10-10T02:53:58.630Z,6.19
2022-10-10T02:56:27.799Z,6.15
2022-10-10T02:58:57.460Z,6.11
2022-10-10T03:01:27.838Z,6.12
2022-10-10T03:03:56.829Z,6.18
2022-10-10T03:06:25.828Z,6.16
2022-10-10T03:08:54.791Z,6.09
2022-10-10T03:11:23.715Z,6.08
2022-10-10T03:13:52.676Z,6.13
2022-10-10T03:16:21.731Z,6.15
2022-10-10T03:18:52.073Z,6.26
2022-10-10T03:21:21.004Z,6.19
2022-10-10T03:23:49.942Z,6.06
2022-10-10T03:26:19.038Z,6.13
2022-10-10T03:28:47.965Z,6.15
2022-10-10T03:31:17.062Z,6.07
2022-10-10T03:33:46.050Z,6.11
2022-10-10T03:36:16.466Z,6.13
2022-10-10T03:38:45.449Z,6.13
2022-10-10T03:41:14.477Z,6.05
2022-10-10T03:43:43.420Z,6.00
2022-10-10T03:46:15.983Z,6.04
2022-10-10T03:48:45.416Z,6.02
2022-10-10T03:51:15.931Z,5.95
2022-10-10T03:53:44.933Z,5.91
2022-10-10T03:56:13.876Z,5.90
2022-10-10T03:58:42.808Z,5.95
2022-10-10T04:01:11.923Z,5.91
2022-10-10T04:03:41.051Z,5.89
2022-10-10T04:06:10.029Z,5.82
2022-10-10T04:08:40.354Z,5.87
2022-10-10T04:11:09.282Z,5.84
2022-10-10T04:13:38.224Z,5.75
2022-10-10T04:16:07.713Z,5.79
2022-10-10T04:18:36.651Z,5.77
2022-10-10T04:21:06.440Z,5.76
2022-10-10T04:23:35.407Z,5.77
2022-10-10T04:26:05.798Z,5.85
2022-10-10T04:28:34.862Z,5.81
2022-10-10T04:31:03.879Z,5.79
2022-10-10T04:33:32.798Z,5.76
2022-10-10T04:36:01.742Z,5.72
2022-10-10T04:38:30.681Z,5.71
2022-10-10T04:40:59.677Z,5.68
2022-10-10T04:43:30.154Z,5.66
2022-10-10T04:45:59.263Z,5.61
2022-10-10T04:48:28.479Z,5.62
2022-10-10T04:50:59.282Z,5.59
2022-10-10T04:53:28.403Z,5.56
2022-10-10T04:55:57.340Z,5.56
2022-10-10T04:58:26.423Z,5.51
2022-10-10T05:00:57.324Z,5.52
2022-10-10T05:03:26.890Z,5.50
2022-10-10T05:05:56.215Z,5.49
2022-10-10T05:08:25.266Z,5.47
2022-10-10T05:10:54.893Z,5.49
2022-10-10T05:13:23.856Z,5.54
2022-10-10T05:15:53.627Z,5.58
2022-10-10T05:18:24.151Z,5.46
2022-10-10T05:20:53.098Z,5.53
2022-10-10T05:23:22.037Z,5.49
2022-10-10T05:25:52.009Z,5.53
2022-10-10T05:28:21.204Z,5.50
2022-10-10T05:30:52.063Z,5.49
2022-10-10T05:33:21.074Z,5.47
2022-10-10T05:35:51.351Z,5.46
2022-10-10T05:38:20.272Z,5.44
2022-10-10T05:40:49.306Z,5.33
2022-10-10T05:43:18.334Z,5.31
2022-10-10T05:45:47.285Z,5.34
2022-10-10T05:48:16.272Z,5.30
2022-10-10T05:50:51.426Z,5.30
2022-10-10T05:53:20.396Z,5.28
2022-10-10T05:55:49.622Z,5.25
2022-10-10T05:58:18.766Z,5.27
2022-10-10T06:00:48.661Z,5.35
2022-10-10T06:03:18.008Z,5.33
2022-10-10T06:05:49.363Z,5.32
2022-10-10T06:08:19.665Z,5.31
2022-10-10T06:10:48.956Z,5.38
2022-10-10T06:13:24.092Z,5.41
2022-10-10T06:15:53.487Z,5.41
2022-10-10T06:18:22.504Z,5.46
2022-10-10T06:20:51.429Z,5.49
2022-10-10T06:23:21.930Z,5.54
2022-10-10T06:25:53.926Z,5.55
2022-10-10T06:28:23.084Z,5.63
2022-10-10T06:30:53.150Z,5.69
2022-10-10T06:33:22.116Z,5.71
2022-10-10T06:35:51.113Z,5.76
2022-10-10T06:38:21.413Z,5.77
2022-10-10T06:40:50.397Z,5.92
2022-10-10T06:43:19.582Z,6.08
2022-10-10T06:45:51.237Z,6.12
2022-10-10T06:48:20.213Z,6.20
2022-10-10T06:51:01.225Z,6.33
2022-10-10T06:53:31.547Z,6.50
2022-10-10T06:56:00.886Z,6.68
2022-10-10T06:58:31.101Z,7.06
2022-10-10T07:01:02.152Z,7.12
2022-10-10T07:03:32.262Z,7.01
2022-10-10T07:06:02.821Z,7.03
2022-10-10T07:08:33.208Z,7.09
2022-10-10T07:11:02.563Z,7.29
2022-10-10T07:13:31.723Z,7.27
2022-10-10T07:16:00.692Z,7.25
2022-10-10T07:18:30.097Z,7.35
2022-10-10T07:20:59.628Z,7.41
2022-10-10T07:23:29.474Z,7.52
2022-10-10T07:26:03.264Z,7.54
2022-10-10T07:28:32.757Z,7.64
2022-10-10T07:31:03.201Z,7.71
2022-10-10T07:33:36.880Z,7.82
2022-10-10T07:36:06.485Z,7.88
2022-10-10T07:38:35.867Z,8.00
2022-10-10T07:41:09.077Z,8.03
2022-10-10T07:43:38.459Z,8.15
2022-10-10T07:46:14.950Z,8.27
2022-10-10T07:48:43.976Z,8.39
2022-10-10T07:51:13.520Z,8.46
2022-10-10T07:53:44.099Z,8.49
2022-10-10T07:56:14.375Z,8.59
2022-10-10T07:58:43.379Z,8.60
2022-10-10T08:01:14.354Z,8.72
2022-10-10T08:03:43.509Z,8.94
2022-10-10T08:06:14.269Z,8.94
2022-10-10T08:08:50.747Z,9.01
2022-10-10T08:11:23.027Z,9.15
2022-10-10T08:13:52.190Z,9.18
2022-10-10T08:16:21.778Z,9.19
2022-10-10T08:18:50.738Z,9.34
2022-10-10T08:21:19.843Z,9.45
2022-10-10T08:23:48.814Z,9.65
2022-10-10T08:26:19.814Z,9.76
2022-10-10T08:28:50.121Z,9.85
2022-10-10T08:31:21.533Z,9.89
2022-10-10T08:33:52.564Z,9.99
2022-10-10T08:36:23.821Z,10.09
2022-10-10T08:38:57.337Z,10.21
2022-10-10T08:41:36.284Z,10.42
2022-10-10T08:44:15.186Z,11.02
2022-10-10T08:46:49.451Z,11.22
2022-10-10T08:49:25.222Z,11.29
2022-10-10T08:52:04.620Z,11.53
2022-10-10T08:54:35.581Z,11.75
2022-10-10T08:57:07.618Z,11.97
2022-10-10T08:59:41.608Z,11.85
2022-10-10T09:05:22.384Z,12.60
2022-10-10T09:08:08.441Z,12.92
2022-10-10T09:10:47.979Z,12.09
2022-10-10T09:13:30.777Z,12.62
2022-10-10T09:16:03.366Z,12.72
2022-10-10T09:18:45.155Z,12.98
2022-10-10T09:21:19.225Z,13.26
2022-10-10T09:23:54.835Z,13.43
2022-10-10T09:26:28.260Z,13.33
2022-10-10T09:29:01.903Z,13.11
2022-10-10T09:31:38.499Z,13.21
2022-10-10T09:34:16.030Z,13.01
2022-10-10T09:36:47.530Z,13.75
2022-10-10T09:39:24.132Z,13.58
2022-10-10T09:41:59.270Z,13.89
2022-10-10T09:44:28.750Z,13.82
2022-10-10T09:47:00.105Z,14.35
2022-10-10T09:49:30.627Z,14.50
2022-10-10T09:52:03.064Z,14.37
2022-10-10T09:54:32.144Z,14.08
2022-10-10T09:57:01.360Z,14.63
2022-10-10T09:59:42.389Z,15.24
2022-10-10T10:02:18.547Z,14.54
2022-10-10T10:04:48.636Z,15.25
2022-10-10T10:07:25.701Z,15.09
2022-10-10T10:09:57.018Z,15.06
2022-10-10T10:12:29.363Z,15.67
2022-10-10T10:15:05.181Z,14.91
2022-10-10T10:17:35.597Z,15.41
2022-10-10T10:20:10.663Z,15.47
2022-10-10T10:22:40.567Z,15.50
2022-10-10T10:25:32.848Z,15.08
2022-10-10T10:28:20.993Z,15.58
2022-10-10T10:30:53.187Z,15.49
2022-10-10T10:33:38.849Z,15.63
2022-10-10T10:36:19.712Z,15.68
2022-10-10T10:38:54.114Z,15.65
2022-10-10T10:41:30.662Z,15.61
2022-10-10T10:44:15.085Z,16.13
2022-10-10T10:46:59.205Z,16.27
2022-10-10T10:49:37.714Z,16.34
2022-10-10T10:52:42.343Z,16.32
2022-10-10T10:55:19.765Z,16.46
2022-10-10T11:01:23.351Z,16.82
2022-10-10T11:05:20.937Z,16.62
2022-10-10T11:07:18.267Z,17.29
2022-10-10T11:10:14.497Z,16.82
2022-10-10T11:12:55.414Z,17.08
2022-10-10T11:15:54.069Z,17.08
2022-10-10T11:18:25.081Z,17.20
2022-10-10T11:20:59.858Z,16.53
2022-10-10T11:23:35.280Z,16.48
2022-10-10T11:26:07.327Z,16.89
2022-10-10T11:28:43.999Z,17.78
2022-10-10T11:31:21.326Z,16.46
2022-10-10T11:33:56.254Z,16.33
2022-10-10T11:36:29.830Z,15.66
2022-10-10T11:39:06.443Z,16.30
2022-10-10T11:41:39.025Z,17.35
2022-10-10T11:44:12.726Z,17.99
2022-10-10T11:46:44.720Z,17.99
2022-10-10T11:49:20.905Z,17.21
2022-10-10T11:52:32.422Z,18.15
2022-10-10T11:55:11.251Z,17.67
2022-10-10T11:57:47.643Z,17.50
2022-10-10T12:00:18.989Z,16.87
2022-10-10T12:02:48.862Z,17.12
2022-10-10T12:05:26.198Z,17.41
2022-10-10T12:08:08.317Z,17.72
2022-10-10T12:10:44.244Z,17.49
2022-10-10T12:13:26.305Z,17.06
2022-10-10T12:15:57.885Z,17.05
2022-10-10T12:18:30.466Z,17.03
2022-10-10T12:21:11.211Z,16.61
2022-10-10T12:23:42.848Z,16.60
2022-10-10T12:26:18.293Z,16.51
2022-10-10T12:29:04.871Z,16.35
2022-10-10T12:31:36.164Z,16.41
2022-10-10T12:34:40.869Z,16.23
2022-10-10T12:37:25.871Z,16.03
2022-10-10T12:40:20.799Z,16.34
2022-10-10T12:43:24.952Z,16.46
2022-10-10T12:46:24.451Z,15.95
2022-10-10T12:49:19.350Z,16.54
2022-10-10T12:52:01.933Z,16.46
2022-10-10T12:54:38.920Z,16.82
2022-10-10T12:57:23.023Z,16.92
2022-10-10T12:59:53.629Z,17.25
2022-10-10T13:02:27.767Z,18.23
2022-10-10T13:04:59.769Z,18.11
2022-10-10T13:07:29.489Z,17.42
2022-10-10T13:10:08.352Z,16.96
2022-10-10T13:12:37.284Z,16.70
2022-10-10T13:15:21.383Z,16.83
2022-10-10T13:17:50.346Z,18.10
2022-10-10T13:20:31.504Z,18.16
2022-10-10T13:23:04.302Z,17.19
2022-10-10T13:25:34.741Z,16.68
2022-10-10T13:28:05.068Z,17.29
2022-10-10T13:30:38.628Z,17.81
2022-10-10T13:33:18.824Z,17.68
2022-10-10T13:35:49.188Z,17.78
2022-10-10T13:38:20.694Z,17.93
2022-10-10T13:40:49.992Z,17.56
2022-10-10T13:43:20.909Z,18.27
2022-10-10T13:45:58.790Z,17.28
2022-10-10T13:48:38.517Z,16.77
2022-10-10T13:51:10.900Z,16.61
2022-10-10T13:53:51.679Z,16.99
2022-10-10T13:56:27.661Z,17.12
2022-10-10T13:58:59.457Z,16.55
2022-10-10T14:01:39.557Z,16.73
2022-10-10T14:04:21.629Z,16.48
2022-10-10T14:07:00.459Z,16.34
2022-10-10T14:09:32.873Z,16.31
2022-10-10T14:12:03.662Z,16.09
2022-10-10T14:14:41.510Z,16.06
2022-10-10T14:17:13.019Z,16.06
2022-10-10T14:19:42.942Z,16.30
2022-10-10T14:22:12.014Z,16.16
2022-10-10T14:24:40.961Z,15.95
2022-10-10T14:27:16.216Z,15.95
2022-10-10T14:29:45.371Z,15.92
2022-10-10T14:32:17.590Z,15.74
2022-10-10T14:34:46.556Z,15.76
2022-10-10T14:37:20.820Z,15.77
2022-10-10T14:39:49.719Z,15.72
2022-10-10T14:42:20.063Z,15.59
2022-10-10T14:44:49.197Z,15.55
2022-10-10T14:47:21.451Z,15.63
2022-10-10T14:49:52.498Z,15.57
2022-10-10T14:52:21.403Z,15.59
2022-10-10T14:54:50.354Z,15.46
2022-10-10T14:57:22.315Z,15.49
2022-10-10T14:59:51.274Z,15.54
2022-10-10T15:02:23.290Z,15.44
2022-10-10T15:04:52.613Z,15.44
2022-10-10T15:07:21.510Z,15.46
2022-10-10T15:10:27.469Z,15.32
2022-10-10T15:12:42.534Z,15.37
2022-10-10T15:15:13.785Z,15.32
2022-10-10T15:17:44.322Z,15.29
2022-10-10T15:20:14.182Z,15.28
2022-10-10T15:22:43.401Z,15.31
2022-10-10T15:25:12.311Z,15.24
2022-10-10T15:27:41.341Z,15.22
2022-10-10T15:30:11.134Z,15.19
2022-10-10T15:32:41.040Z,15.17
2022-10-10T15:35:14.821Z,15.16
2022-10-10T15:37:44.286Z,15.20
2022-10-10T15:40:15.707Z,15.17
2022-10-10T15:42:44.661Z,15.20
2022-10-10T15:45:16.704Z,15.17
2022-10-10T15:47:51.720Z,15.20
2022-10-10T15:50:26.728Z,15.02
2022-10-10T15:52:55.933Z,15.02
2022-10-10T15:55:24.821Z,15.13
2022-10-10T15:57:53.820Z,15.17
2022-10-10T16:00:22.829Z,15.10
2022-10-10T16:02:51.730Z,15.02
2022-10-10T16:05:21.970Z,15.02
2022-10-10T16:07:53.576Z,14.97
2022-10-10T16:10:22.494Z,14.83
2022-10-10T16:12:51.648Z,14.72
2022-10-10T16:15:20.581Z,14.62
2022-10-10T16:17:49.688Z,14.58
2022-10-10T16:20:18.725Z,14.45
2022-10-10T16:22:48.965Z,14.29
2022-10-10T16:25:22.433Z,14.15
2022-10-10T16:27:52.625Z,13.95
2022-10-10T16:30:21.849Z,13.79
2022-10-10T16:32:50.798Z,13.55
2022-10-10T16:35:19.704Z,13.36
2022-10-10T16:37:50.012Z,13.19
2022-10-10T16:40:19.233Z,13.04
2022-10-10T16:42:48.188Z,12.96
2022-10-10T16:45:17.222Z,12.83
2022-10-10T16:47:46.234Z,12.70
2022-10-10T16:50:15.356Z,12.57
2022-10-10T16:52:44.354Z,12.48
2022-10-10T16:55:14.876Z,12.42
2022-10-10T16:57:43.840Z,12.36
2022-10-10T17:00:13.423Z,12.34
2022-10-10T17:02:42.936Z,12.29
2022-10-10T17:05:11.921Z,12.20
2022-10-10T17:07:40.839Z,12.23
2022-10-10T17:10:10.829Z,12.17
2022-10-10T17:12:41.375Z,12.10
2022-10-10T17:15:10.925Z,12.12
2022-10-10T17:17:40.156Z,12.07
2022-10-10T17:20:10.073Z,12.05
2022-10-10T17:22:40.879Z,12.12
2022-10-10T17:25:10.968Z,12.10
2022-10-10T17:27:43.438Z,12.08
2022-10-10T17:30:13.748Z,12.15
2022-10-10T17:32:43.376Z,12.16
2022-10-10T17:35:13.121Z,12.16
2022-10-10T17:37:42.076Z,12.07
2022-10-10T17:40:14.633Z,12.08
2022-10-10T17:42:45.035Z,11.86
2022-10-10T17:45:14.035Z,11.63
2022-10-10T17:47:43.137Z,11.52
2022-10-10T17:50:13.249Z,11.31
2022-10-10T17:52:42.226Z,11.22
2022-10-10T17:55:11.263Z,11.06
2022-10-10T17:57:40.240Z,11.04
2022-10-10T18:00:12.269Z,10.95
2022-10-10T18:02:41.306Z,10.91
2022-10-10T18:05:10.478Z,10.84
2022-10-10T18:07:39.464Z,10.80
2022-10-10T18:10:09.069Z,10.79
2022-10-10T18:12:38.067Z,10.76
2022-10-10T18:15:10.582Z,10.70
2022-10-10T18:17:39.590Z,10.65
2022-10-10T18:20:09.956Z,10.64
2022-10-10T18:22:38.937Z,10.61
2022-10-10T18:25:08.647Z,10.58
2022-10-10T18:27:38.357Z,10.50
2022-10-10T18:30:08.440Z,10.42
2022-10-10T18:32:38.898Z,10.29
2022-10-10T18:35:08.559Z,10.29
2022-10-10T18:37:37.852Z,10.18
2022-10-10T18:40:08.104Z,10.09
2022-10-10T18:42:37.949Z,10.04
2022-10-10T18:45:08.121Z,10.05
2022-10-10T18:47:38.883Z,10.01
2022-10-10T18:50:10.046Z,9.90
2022-10-10T18:52:39.150Z,9.81
2022-10-10T18:55:08.496Z,9.78
2022-10-10T18:57:38.886Z,9.69
2022-10-10T19:00:09.097Z,9.67
2022-10-10T19:02:39.482Z,9.61
2022-10-10T19:05:08.834Z,9.54
2022-10-10T19:07:37.863Z,9.48
2022-10-10T19:10:07.429Z,9.42
2022-10-10T19:12:36.624Z,9.47
2022-10-10T19:15:06.171Z,9.43
2022-10-10T19:17:37.829Z,9.40
2022-10-10T19:20:07.901Z,9.36
2022-10-10T19:22:37.515Z,9.39
2022-10-10T19:25:07.399Z,9.37
2022-10-10T19:27:37.150Z,9.36
2022-10-10T19:30:07.746Z,9.36
2022-10-10T19:32:38.437Z,9.34
2022-10-10T19:35:08.037Z,9.39
2022-10-10T19:37:37.398Z,9.39
2022-10-10T19:40:07.165Z,9.35
2022-10-10T19:42:36.228Z,9.34
2022-10-10T19:45:06.063Z,9.29
2022-10-10T19:47:35.509Z,9.32
2022-10-10T19:50:06.456Z,9.30
2022-10-10T19:52:35.639Z,9.31
2022-10-10T19:55:05.288Z,9.32
2022-10-10T19:57:34.429Z,9.27
2022-10-10T20:00:03.638Z,9.25
2022-10-10T20:02:43.894Z,9.18
2022-10-10T20:05:14.404Z,9.22
2022-10-10T20:07:44.046Z,9.21
2022-10-10T20:10:13.233Z,9.24
2022-10-10T20:12:42.259Z,9.24
2022-10-10T20:15:12.168Z,9.27
2022-10-10T20:17:45.249Z,9.23
2022-10-10T20:20:15.674Z,9.19
2022-10-10T20:22:45.015Z,9.21
2022-10-10T20:25:17.726Z,9.17
2022-10-10T20:27:46.875Z,9.20
2022-10-10T20:30:16.304Z,9.14
2022-10-10T20:32:45.404Z,9.12
2022-10-10T20:35:18.582Z,9.10
2022-10-10T20:37:47.849Z,9.08
2022-10-10T20:40:17.026Z,9.08
2022-10-10T20:42:46.175Z,9.02
2022-10-10T20:45:17.623Z,8.97
2022-10-10T20:47:46.809Z,8.95
2022-10-10T20:50:17.543Z,8.93
2022-10-10T20:52:46.785Z,8.84
2022-10-10T20:55:16.026Z,8.84
2022-10-10T20:57:45.072Z,8.75
2022-10-10T21:00:15.515Z,8.72
2022-10-10T21:02:44.599Z,8.91
2022-10-10T21:05:13.570Z,8.83
2022-10-10T21:07:45.812Z,8.74
2022-10-10T21:10:14.940Z,8.78
2022-10-10T21:12:43.944Z,8.74
2022-10-10T21:15:12.973Z,8.73
2022-10-10T21:17:42.111Z,8.73
2022-10-10T21:20:12.073Z,8.60
2022-10-10T21:22:41.074Z,8.61
2022-10-10T21:25:13.151Z,8.64
2022-10-10T21:27:42.172Z,8.60
2022-10-10T21:30:11.809Z,8.63
2022-10-10T21:32:40.848Z,8.65
2022-10-10T21:35:10.698Z,8.55
2022-10-10T21:37:39.701Z,8.53
2022-10-10T21:40:11.784Z,8.56
2022-10-10T21:42:40.879Z,8.45
2022-10-10T21:45:10.641Z,8.49
2022-10-10T21:47:42.163Z,8.40
2022-10-10T21:50:12.813Z,8.45
2022-10-10T21:52:41.776Z,8.47
2022-10-10T21:55:12.420Z,8.54
2022-10-10T21:57:41.375Z,8.52
2022-10-10T22:00:11.842Z,8.50
2022-10-10T22:02:41.067Z,8.53
2022-10-10T22:05:13.767Z,8.49
2022-10-10T22:07:44.775Z,8.44
2022-10-10T22:10:19.228Z,8.36
2022-10-10T22:12:48.431Z,8.37
2022-10-10T22:15:17.581Z,8.34
2022-10-10T22:17:46.586Z,8.31
2022-10-10T22:20:15.887Z,8.35
2022-10-10T22:22:45.166Z,8.33
2022-10-10T22:25:17.690Z,8.31
2022-10-10T22:27:47.059Z,8.37
2022-10-10T22:30:16.077Z,8.34
2022-10-10T22:32:45.000Z,8.25
2022-10-10T22:35:13.954Z,8.24
2022-10-10T22:37:42.885Z,8.29
2022-10-10T22:40:13.942Z,8.34
2022-10-10T22:42:42.883Z,8.38
2022-10-10T22:45:12.217Z,8.29
2022-10-10T22:47:41.150Z,8.25
2022-10-10T22:50:11.162Z,8.27
2022-10-10T22:52:40.766Z,8.27
2022-10-10T22:55:14.413Z,8.34
2022-10-10T22:57:47.682Z,8.29
2022-10-10T23:00:18.194Z,8.30
2022-10-10T23:02:47.301Z,8.31
2022-10-10T23:05:16.408Z,8.27
2022-10-10T23:07:45.388Z,8.28
2022-10-10T23:10:14.334Z,8.17
2022-10-10T23:12:43.394Z,8.25
2022-10-10T23:15:13.947Z,8.16
2022-10-10T23:17:42.913Z,8.23
2022-10-10T23:20:12.397Z,8.17
2022-10-10T23:22:41.347Z,8.11
2022-10-10T23:25:10.389Z,8.02
2022-10-10T23:27:39.387Z,8.08
2022-10-10T23:30:09.314Z,8.01
2022-10-10T23:32:39.657Z,8.00
2022-10-10T23:35:09.533Z,8.05
2022-10-10T23:37:38.561Z,8.02
2022-10-10T23:40:08.391Z,8.00
2022-10-10T23:42:37.385Z,8.04
2022-10-10T23:45:07.069Z,8.00
2022-10-10T23:47:36.030Z,7.93
2022-10-10T23:50:07.565Z,7.89
2022-10-10T23:52:36.676Z,7.79
2022-10-10T23:55:06.660Z,7.85
2022-10-10T23:57:35.627Z,7.84
